Météo des aéroports (METAR) proches de Ticheville

 

LFRG - St Gatien, France
Distance from station: N 52km
Mise à jour: 23/03/2019 14:00
couvert
couvert
 Wind from N
Vent: N 6 km/h
Température: 11°C
Point de rosée: 8°C
Humidité: 82%
Baromètre: 1031 hPa
Clouds: couvert
Visibility: 6 km
Cloud details: Few Clouds 366 m
partiellement nuageux 640 m
couvert 945 m
2019/03/23 13:00 LFRG 231300Z AUTO 01003KT 340V080 6000 FEW012 SCT021 OVC031 11/08 Q1031 TEMPO 3000 BR BKN008
LFRK - Caen/Carpiquet(A, France
Distance from station: ONO 60km
Mise à jour: 23/03/2019 14:00
couvert
couvert
 Wind from NE
Vent: NE 13 km/h
Température: 12°C
Point de rosée: 8°C
Humidité: 77%
Baromètre: 1031 hPa
Clouds: couvert
Visibility: 10 km
Cloud details: partiellement nuageux 579 m
couvert 1128 m
2019/03/23 13:00 LFRK 231300Z AUTO 04007KT 360V070 9999 SCT019 OVC037 12/08 Q1031 NOSIG
 
LFOH - Le Havre/Octevil, France
Distance from station: NNO 69km
Mise à jour: 23/03/2019 14:00
Mist, couvert
Mist, couvert
 Wind from N
Vent: N 9 km/h
Température: 9°C
Wind Chill: 7°C
Point de rosée: 8°C
Humidité: 94%
Baromètre: 1031 hPa
Résumé: Mist
Clouds: couvert
Visibility: 4 km
Cloud details: couvert 945 m
2019/03/23 13:00 LFOH 231300Z AUTO 36005KT 3700 BR OVC031 09/08 Q1031 TEMPO OVC004
LFOE - Evreux/Fauville, France
Distance from station: E 70km
Mise à jour: 23/03/2019 14:00
couvert
couvert
 Wind from N
Vent: N 9 km/h
Température: 12°C
Point de rosée: 6°C
Humidité: 67%
Baromètre: 1030 hPa
Clouds: couvert
Visibility: 10 km
Cloud details: couvert 914 m
2019/03/23 13:00 LFOE 231300Z AUTO 36005KT 320V040 9999 OVC030 12/06 Q1030 NOSIG
 
LFOP - Rouen/Boos (aut), France
Distance from station: NE 83km
Mise à jour: 23/03/2019 14:00

 Wind from NNE
Vent: NNE 11 km/h
Température: 10°C
Wind Chill: 8°C
Point de rosée: 7°C
Humidité: 82%
Baromètre: 1030 hPa
Visibility: 10 km
2019/03/23 13:00 LFOP 231300Z AUTO 03006KT 9999 ////// 10/07 Q1030
LFRM - Le Mans/Arnage(A, France
Distance from station: S 107km
Mise à jour: 23/03/2019 14:00
clair
clair
 Wind from NNE
Vent: NNE 11 km/h
Température: 13°C
Point de rosée: 8°C
Humidité: 72%
Baromètre: 1030 hPa
Résumé: clair
Visibility: greater than 10 km
2019/03/23 13:00 LFRM 231300Z AUTO 02006KT 340V060 CAVOK 13/08 Q1030 NOSIG